Time;durP1;ratioP1;P1;durP2;ratioP2;P2;SDS_P1;SDS_P2;PMS_P1;PMS_P2;Temp;Humidity;BMP_temperature;BMP_pressure;BME280_temperature;BME280_humidity;BME280_pressure;Samples;Min_cycle;Max_cycle;Signal;HPM_P1;HPM_P2
2021/08/06 00:01:17;;;;;;;7.03;4.93;;;17.40;99.90;;;;;;5056839;28;20040;-79
2021/08/06 00:03:42;;;;;;;7.95;5.18;;;17.40;99.90;;;;;;5068558;28;20039;-79
2021/08/06 00:06:08;;;;;;;5.97;5.10;;;17.30;99.90;;;;;;5068857;28;20383;-79
2021/08/06 00:08:34;;;;;;;6.45;5.40;;;17.30;99.90;;;;;;5060241;28;20095;-80
2021/08/06 00:11:01;;;;;;;7.93;5.03;;;17.40;99.90;;;;;;5066135;28;20028;-79
2021/08/06 00:13:26;;;;;;;5.88;5.10;;;17.40;99.90;;;;;;5057320;28;20491;-78
2021/08/06 00:15:52;;;;;;;6.10;5.05;;;17.30;99.90;;;;;;5068435;28;20040;-79
2021/08/06 00:18:18;;;;;;;6.85;5.70;;;17.40;99.90;;;;;;5066978;28;20032;-79
2021/08/06 00:20:44;;;;;;;7.38;5.32;;;17.40;99.90;;;;;;5057528;28;20032;-79
2021/08/06 00:23:10;;;;;;;6.72;5.32;;;17.30;99.90;;;;;;5066466;28;20029;-79
2021/08/06 00:25:35;;;;;;;8.50;4.80;;;17.30;99.90;;;;;;5063617;28;20033;-79
2021/08/06 00:28:01;;;;;;;4.97;4.47;;;17.30;99.90;;;;;;5065651;28;20317;-79
2021/08/06 00:30:27;;;;;;;6.07;4.70;;;17.40;99.90;;;;;;5060885;28;20036;-79
2021/08/06 00:32:52;;;;;;;5.75;4.90;;;17.30;99.90;;;;;;5066308;28;20059;-79
2021/08/06 00:35:18;;;;;;;5.60;4.75;;;17.30;99.90;;;;;;5053574;28;20479;-79
2021/08/06 00:37:44;;;;;;;6.68;5.00;;;17.30;99.90;;;;;;5052005;28;20396;-79
2021/08/06 00:40:10;;;;;;;8.10;5.55;;;17.30;99.90;;;;;;5065980;28;20075;-79
2021/08/06 00:42:35;;;;;;;5.75;4.88;;;17.30;99.90;;;;;;5068644;28;20032;-79
2021/08/06 00:45:01;;;;;;;5.35;4.85;;;17.30;99.90;;;;;;5063040;28;20029;-79
2021/08/06 00:47:27;;;;;;;5.13;4.50;;;17.30;99.90;;;;;;5054556;28;20025;-79
2021/08/06 00:49:52;;;;;;;6.38;4.88;;;17.30;99.90;;;;;;5066704;28;20128;-79
2021/08/06 00:52:18;;;;;;;5.35;4.65;;;17.30;99.90;;;;;;5057006;28;20171;-79
2021/08/06 00:54:43;;;;;;;7.80;4.93;;;17.30;99.90;;;;;;5056322;28;20065;-79
2021/08/06 00:57:13;;;;;;;6.47;5.22;;;17.30;99.90;;;;;;5061553;28;20020;-79
2021/08/06 00:59:39;;;;;;;6.55;5.38;;;17.30;99.90;;;;;;5062273;28;20033;-79
2021/08/06 01:02:13;;;;;;;7.32;5.10;;;17.30;99.90;;;;;;5060595;28;20469;-79
2021/08/06 01:05:12;;;;;;;5.88;4.90;;;17.30;99.90;;;;;;5063627;28;20139;-79
2021/08/06 01:07:43;;;;;;;6.10;4.40;;;17.30;99.90;;;;;;5051795;28;20135;-79
2021/08/06 01:10:11;;;;;;;6.55;4.97;;;17.30;99.90;;;;;;5059681;28;20041;-79
2021/08/06 01:12:49;;;;;;;7.05;4.90;;;17.30;99.90;;;;;;5059074;28;20152;-79
2021/08/06 01:15:15;;;;;;;5.70;4.82;;;17.30;99.90;;;;;;5054836;28;20403;-79
2021/08/06 01:17:43;;;;;;;5.50;4.85;;;17.30;99.90;;;;;;5057856;28;20029;-79
2021/08/06 01:20:32;;;;;;;6.85;4.82;;;17.30;99.90;;;;;;5062355;28;20044;-79
2021/08/06 01:23:49;;;;;;;5.63;4.85;;;17.30;99.90;;;;;;5061664;28;20071;-79
2021/08/06 01:26:20;;;;;;;6.22;5.07;;;17.30;99.90;;;;;;5044304;28;20041;-79
2021/08/06 01:28:48;;;;;;;5.90;5.00;;;17.30;99.90;;;;;;5068492;28;20017;-79
2021/08/06 01:31:21;;;;;;;6.72;4.88;;;17.30;99.90;;;;;;5069417;28;20771;-79
2021/08/06 01:33:46;;;;;;;5.93;4.35;;;17.30;99.90;;;;;;5069062;28;20071;-79
2021/08/06 01:36:12;;;;;;;7.10;5.18;;;17.30;99.90;;;;;;5065904;28;20061;-79
2021/08/06 01:38:37;;;;;;;7.70;5.25;;;17.30;99.90;;;;;;5065766;28;20055;-79
2021/08/06 01:41:26;;;;;;;5.45;4.93;;;17.30;99.90;;;;;;5063128;28;20452;-79
2021/08/06 01:44:13;;;;;;;6.65;5.22;;;17.30;99.90;;;;;;5058453;28;20686;-79
2021/08/06 01:46:42;;;;;;;5.07;4.57;;;17.30;99.90;;;;;;5058201;28;20072;-79
2021/08/06 01:49:11;;;;;;;5.85;5.10;;;17.30;99.90;;;;;;5066922;28;20024;-79
2021/08/06 01:51:41;;;;;;;6.10;5.32;;;17.30;99.90;;;;;;5069021;28;20110;-79
2021/08/06 01:54:08;;;;;;;6.03;5.07;;;17.30;99.90;;;;;;5062849;28;20112;-79
2021/08/06 01:56:36;;;;;;;5.57;4.68;;;17.30;99.90;;;;;;5067235;28;20028;-79
2021/08/06 01:59:02;;;;;;;6.88;5.20;;;17.20;99.90;;;;;;5067055;28;20020;-79
2021/08/06 02:01:28;;;;;;;6.43;5.15;;;17.20;99.90;;;;;;5070683;28;20021;-79
2021/08/06 02:03:55;;;;;;;6.65;4.72;;;17.20;99.90;;;;;;5069066;28;20055;-79
2021/08/06 02:06:21;;;;;;;8.48;5.38;;;17.20;99.90;;;;;;5065453;28;20036;-79
2021/08/06 02:08:48;;;;;;;5.35;4.53;;;17.20;99.90;;;;;;5064481;28;20132;-79
2021/08/06 02:11:18;;;;;;;5.65;4.95;;;17.20;99.90;;;;;;5068984;28;20032;-79
2021/08/06 02:13:48;;;;;;;6.78;5.38;;;17.20;99.90;;;;;;5067965;28;20037;-79
2021/08/06 02:16:15;;;;;;;6.28;5.05;;;17.20;99.90;;;;;;5061715;28;20036;-79
2021/08/06 02:18:41;;;;;;;5.88;4.70;;;17.20;99.90;;;;;;5066421;28;20056;-80
2021/08/06 02:21:11;;;;;;;5.20;4.70;;;17.20;99.90;;;;;;5066006;28;20032;-79
2021/08/06 02:23:37;;;;;;;6.95;5.05;;;17.20;99.90;;;;;;5069430;28;20033;-79
2021/08/06 02:26:05;;;;;;;5.60;4.88;;;17.10;99.90;;;;;;5062629;28;20036;-79
2021/08/06 02:28:32;;;;;;;6.47;5.13;;;17.20;99.90;;;;;;5067183;28;20356;-79
2021/08/06 02:30:58;;;;;;;5.28;4.75;;;17.10;99.90;;;;;;5063036;28;20024;-79
2021/08/06 02:33:26;;;;;;;6.80;5.60;;;17.10;99.90;;;;;;5056418;28;20032;-79
2021/08/06 02:35:52;;;;;;;6.25;5.60;;;17.10;99.90;;;;;;5063931;28;20025;-79
2021/08/06 02:38:28;;;;;;;7.05;5.53;;;17.10;99.90;;;;;;5063926;28;20028;-79
2021/08/06 02:40:53;;;;;;;5.93;4.88;;;17.10;99.90;;;;;;5058170;28;20048;-79
2021/08/06 02:43:19;;;;;;;7.15;5.18;;;17.10;99.90;;;;;;5067539;28;20029;-79
2021/08/06 02:45:51;;;;;;;6.45;5.30;;;17.10;99.90;;;;;;5069282;28;20027;-79
2021/08/06 02:48:17;;;;;;;6.00;5.25;;;17.10;99.90;;;;;;5068023;28;20816;-79
2021/08/06 02:50:42;;;;;;;9.85;5.28;;;17.00;99.90;;;;;;5065890;28;20129;-79
2021/08/06 02:53:08;;;;;;;6.15;5.03;;;17.10;99.90;;;;;;5068110;28;20658;-79
2021/08/06 02:55:34;;;;;;;6.35;5.45;;;17.10;99.90;;;;;;5063207;28;20036;-79
2021/08/06 02:57:59;;;;;;;7.10;5.25;;;17.00;99.90;;;;;;5065219;28;20029;-79
2021/08/06 03:00:25;;;;;;;8.07;5.28;;;17.00;99.90;;;;;;5065870;28;20438;-79
2021/08/06 03:02:51;;;;;;;6.57;5.20;;;17.00;99.90;;;;;;5062776;28;20521;-77
2021/08/06 03:05:16;;;;;;;9.95;5.22;;;17.00;99.90;;;;;;5060427;28;20421;-77
2021/08/06 03:07:48;;;;;;;6.97;5.65;;;17.00;99.90;;;;;;5058801;28;20028;-77
2021/08/06 03:10:14;;;;;;;6.65;5.30;;;17.00;99.90;;;;;;5062523;28;20049;-77
2021/08/06 03:12:39;;;;;;;6.38;5.57;;;17.00;99.90;;;;;;5060340;28;20043;-77
2021/08/06 03:15:05;;;;;;;7.35;5.40;;;17.00;99.90;;;;;;5069033;28;20028;-77
2021/08/06 03:17:31;;;;;;;12.48;5.45;;;17.00;99.90;;;;;;5069042;28;20032;-77
2021/08/06 03:19:56;;;;;;;6.70;5.60;;;17.00;99.90;;;;;;5063257;28;20475;-78
2021/08/06 03:22:22;;;;;;;7.78;5.90;;;17.00;99.90;;;;;;5067117;28;20028;-77
2021/08/06 03:24:47;;;;;;;5.75;5.15;;;17.00;99.90;;;;;;5068922;28;20027;-78
2021/08/06 03:27:13;;;;;;;6.07;5.47;;;17.00;99.90;;;;;;5065578;28;20360;-77
2021/08/06 03:29:38;;;;;;;7.57;5.63;;;17.00;99.90;;;;;;5068362;28;20119;-78
2021/08/06 03:32:04;;;;;;;6.75;5.22;;;17.00;99.90;;;;;;5066268;28;20028;-77
2021/08/06 03:34:29;;;;;;;8.60;5.47;;;17.00;99.90;;;;;;5067503;28;20115;-77
2021/08/06 03:36:55;;;;;;;6.47;5.85;;;17.00;99.90;;;;;;5067564;28;20104;-77
2021/08/06 03:39:21;;;;;;;6.70;5.78;;;17.00;99.90;;;;;;5060223;28;20028;-79
2021/08/06 03:41:47;;;;;;;7.38;5.93;;;17.00;99.90;;;;;;5068363;28;20029;-77
2021/08/06 03:44:12;;;;;;;6.53;5.80;;;17.00;99.90;;;;;;5066518;28;20073;-77
2021/08/06 03:46:37;;;;;;;6.05;5.45;;;17.00;99.90;;;;;;5059534;28;20077;-79
2021/08/06 03:49:03;;;;;;;6.22;5.60;;;17.00;99.90;;;;;;5068702;28;20052;-79
2021/08/06 03:51:28;;;;;;;10.40;5.97;;;17.00;99.90;;;;;;5066337;28;20028;-77
2021/08/06 03:53:55;;;;;;;6.30;5.68;;;17.00;99.90;;;;;;5054283;28;20040;-77
2021/08/06 03:56:21;;;;;;;7.20;5.53;;;17.00;99.90;;;;;;5061358;28;20031;-77
2021/08/06 03:58:46;;;;;;;7.32;5.75;;;17.00;99.90;;;;;;5064065;28;20498;-78
2021/08/06 04:01:12;;;;;;;7.75;5.85;;;17.00;99.90;;;;;;5064150;28;20052;-77
2021/08/06 04:03:37;;;;;;;6.75;5.60;;;17.00;99.90;;;;;;5063365;28;20510;-77
2021/08/06 04:06:03;;;;;;;6.93;6.00;;;17.00;99.90;;;;;;5054839;28;20175;-79
2021/08/06 04:08:28;;;;;;;8.57;6.30;;;17.00;99.90;;;;;;5062393;28;20040;-77
2021/08/06 04:10:54;;;;;;;8.80;6.13;;;17.00;99.90;;;;;;5063914;28;20029;-77
2021/08/06 04:13:19;;;;;;;6.88;6.15;;;17.00;99.90;;;;;;5059944;28;20021;-77
2021/08/06 04:15:44;;;;;;;7.57;6.15;;;17.00;99.90;;;;;;5049247;28;20071;-77
2021/08/06 04:18:10;;;;;;;6.43;5.75;;;17.00;99.90;;;;;;5066603;28;20029;-77
2021/08/06 04:20:35;;;;;;;7.85;6.03;;;17.00;99.90;;;;;;5061461;28;20079;-78
2021/08/06 04:23:01;;;;;;;8.98;5.95;;;17.00;99.90;;;;;;5066518;28;20411;-78
2021/08/06 04:25:28;;;;;;;7.63;5.38;;;17.00;99.90;;;;;;5060961;28;20020;-78
2021/08/06 04:27:54;;;;;;;9.43;5.85;;;17.10;99.90;;;;;;5053134;28;20079;-78
2021/08/06 04:30:19;;;;;;;9.43;6.45;;;17.10;99.90;;;;;;5066216;28;20104;-77
2021/08/06 04:32:45;;;;;;;6.93;5.85;;;17.10;99.90;;;;;;5061479;28;20021;-78
2021/08/06 04:35:10;;;;;;;10.30;6.20;;;17.10;99.90;;;;;;5053533;28;20081;-78
2021/08/06 04:37:48;;;;;;;7.18;5.95;;;17.10;99.90;;;;;;5061967;28;20039;-78
2021/08/06 04:40:14;;;;;;;6.78;6.03;;;17.10;99.90;;;;;;5056380;28;20107;-78
2021/08/06 04:42:39;;;;;;;8.35;6.00;;;17.10;99.90;;;;;;5064953;28;20621;-77
2021/08/06 04:45:05;;;;;;;8.95;5.82;;;17.20;99.90;;;;;;5060209;28;20090;-78
2021/08/06 04:47:30;;;;;;;6.82;5.70;;;17.20;99.90;;;;;;5057361;28;20029;-78
2021/08/06 04:49:56;;;;;;;7.18;6.15;;;17.20;99.90;;;;;;5066957;28;20063;-78
2021/08/06 04:52:21;;;;;;;7.95;6.28;;;17.20;99.90;;;;;;5054445;28;20033;-78
2021/08/06 04:54:46;;;;;;;6.80;6.10;;;17.30;99.90;;;;;;5065062;28;20120;-78
2021/08/06 04:57:12;;;;;;;8.45;5.97;;;17.30;99.90;;;;;;5063788;28;20078;-77
2021/08/06 04:59:37;;;;;;;6.72;5.97;;;17.30;99.90;;;;;;5053714;28;20012;-78
2021/08/06 05:02:03;;;;;;;10.98;6.70;;;17.30;99.90;;;;;;5061853;28;20477;-78
2021/08/06 05:04:28;;;;;;;6.78;6.07;;;17.40;99.90;;;;;;5069001;28;20078;-77
2021/08/06 05:06:54;;;;;;;11.50;6.45;;;17.40;99.90;;;;;;5062745;28;20033;-77
2021/08/06 05:09:19;;;;;;;8.88;6.30;;;17.40;99.90;;;;;;5062959;28;20087;-77
2021/08/06 05:11:45;;;;;;;7.70;6.75;;;17.40;99.90;;;;;;5069765;28;20023;-77
2021/08/06 05:14:10;;;;;;;11.10;6.40;;;17.40;99.90;;;;;;5057963;28;20020;-78
2021/08/06 05:16:36;;;;;;;12.68;6.45;;;17.40;99.90;;;;;;5057117;28;20096;-77
2021/08/06 05:19:01;;;;;;;7.10;6.35;;;17.40;99.90;;;;;;5063517;28;20028;-77
2021/08/06 05:21:27;;;;;;;7.68;6.00;;;17.40;99.90;;;;;;5065620;28;20064;-75
2021/08/06 05:23:52;;;;;;;8.55;6.57;;;17.40;99.90;;;;;;5067929;28;20074;-73
2021/08/06 05:26:18;;;;;;;10.70;6.70;;;17.40;99.90;;;;;;5065819;28;20530;-74
2021/08/06 05:28:43;;;;;;;11.40;6.30;;;17.40;99.90;;;;;;5063059;28;20032;-73
2021/08/06 05:31:09;;;;;;;9.75;6.03;;;17.40;99.90;;;;;;5060398;28;20099;-73
2021/08/06 05:33:40;;;;;;;8.55;6.53;;;17.50;99.90;;;;;;5059552;28;20564;-73
2021/08/06 05:36:06;;;;;;;10.07;6.22;;;17.50;99.90;;;;;;5054507;28;20037;-73
2021/08/06 05:38:31;;;;;;;8.18;6.22;;;17.50;99.90;;;;;;5061860;28;20036;-74
2021/08/06 05:40:57;;;;;;;8.35;6.68;;;17.50;99.90;;;;;;5062630;28;20090;-77
2021/08/06 05:43:22;;;;;;;7.45;6.63;;;17.50;99.90;;;;;;5068127;28;20051;-75
2021/08/06 05:45:48;;;;;;;8.88;6.75;;;17.60;99.90;;;;;;5066607;28;20046;-76
2021/08/06 05:48:17;;;;;;;10.80;6.40;;;17.60;99.90;;;;;;5067243;28;20446;-75
2021/08/06 05:50:42;;;;;;;12.07;6.88;;;17.60;99.90;;;;;;5065415;28;20033;-75
2021/08/06 05:53:11;;;;;;;13.48;8.65;;;17.60;99.90;;;;;;5064687;28;20032;-75
2021/08/06 05:55:36;;;;;;;12.23;7.45;;;17.70;99.90;;;;;;5066385;28;20021;-75
2021/08/06 05:58:02;;;;;;;11.82;7.65;;;17.70;99.90;;;;;;5061147;28;20043;-75
2021/08/06 06:00:28;;;;;;;10.20;6.97;;;17.70;99.90;;;;;;5061630;28;20028;-73
2021/08/06 06:02:53;;;;;;;8.77;6.90;;;17.80;99.90;;;;;;5059494;28;20032;-77
2021/08/06 06:05:19;;;;;;;7.72;6.93;;;17.80;99.90;;;;;;5070039;28;20514;-75
2021/08/06 06:07:46;;;;;;;7.93;7.13;;;17.90;99.90;;;;;;5067033;28;20028;-77
2021/08/06 06:10:12;;;;;;;11.90;7.15;;;17.90;99.90;;;;;;5067942;28;20059;-76
2021/08/06 06:12:39;;;;;;;10.15;6.88;;;18.00;99.90;;;;;;5058960;28;20024;-76
2021/08/06 06:15:05;;;;;;;12.02;7.85;;;18.00;99.90;;;;;;5059409;28;20029;-73
2021/08/06 06:17:31;;;;;;;9.85;7.40;;;18.00;99.90;;;;;;5066879;28;20036;-73
2021/08/06 06:19:56;;;;;;;7.78;6.78;;;18.00;99.90;;;;;;5070785;28;20067;-74
2021/08/06 06:22:22;;;;;;;9.23;7.10;;;18.10;99.90;;;;;;5070027;28;20055;-74
2021/08/06 06:24:47;;;;;;;10.52;7.10;;;18.10;99.90;;;;;;5069499;28;20547;-73
2021/08/06 06:27:13;;;;;;;9.43;7.13;;;18.10;99.90;;;;;;5069744;28;20030;-73
2021/08/06 06:29:38;;;;;;;10.02;7.30;;;18.20;99.90;;;;;;5071009;28;20105;-73
2021/08/06 06:32:04;;;;;;;9.50;7.22;;;18.30;99.90;;;;;;5067142;28;20198;-73
2021/08/06 06:34:29;;;;;;;11.45;6.82;;;18.30;99.90;;;;;;5069999;28;20415;-73
2021/08/06 06:36:55;;;;;;;11.05;7.00;;;18.40;99.90;;;;;;5064619;28;20032;-73
2021/08/06 06:39:21;;;;;;;8.85;7.20;;;18.40;99.90;;;;;;5050945;28;20486;-73
2021/08/06 06:41:46;;;;;;;9.88;6.82;;;18.50;99.90;;;;;;5061398;28;20074;-73
2021/08/06 06:44:11;;;;;;;8.63;6.70;;;18.60;99.90;;;;;;5061775;28;20379;-73
2021/08/06 06:46:37;;;;;;;8.45;7.03;;;18.60;99.90;;;;;;5054092;28;20052;-74
2021/08/06 06:49:02;;;;;;;8.98;7.32;;;18.70;99.90;;;;;;5068800;28;20505;-73
2021/08/06 06:51:28;;;;;;;12.50;7.05;;;18.70;99.90;;;;;;5070050;28;20081;-73
2021/08/06 06:53:53;;;;;;;12.05;7.50;;;18.80;99.90;;;;;;5069490;28;20484;-73
2021/08/06 06:56:19;;;;;;;10.13;7.18;;;18.80;99.90;;;;;;5070020;28;20020;-74
2021/08/06 06:58:44;;;;;;;9.57;7.32;;;18.90;99.90;;;;;;5064326;28;20429;-73
2021/08/06 07:01:10;;;;;;;11.10;6.45;;;19.00;99.90;;;;;;5067057;28;20025;-73
2021/08/06 07:03:35;;;;;;;8.75;6.22;;;19.00;99.90;;;;;;5069913;28;20055;-73
2021/08/06 07:06:01;;;;;;;13.32;6.45;;;19.10;99.90;;;;;;5069860;28;20316;-73
2021/08/06 07:08:26;;;;;;;14.35;7.53;;;19.20;99.90;;;;;;5061129;28;20032;-74
2021/08/06 07:10:51;;;;;;;7.63;6.15;;;19.20;99.90;;;;;;5064647;28;20070;-73
2021/08/06 07:13:17;;;;;;;12.85;7.00;;;19.30;99.90;;;;;;5067101;28;20024;-73
2021/08/06 07:15:43;;;;;;;9.65;6.75;;;19.30;99.90;;;;;;5067601;28;20036;-74
2021/08/06 07:18:12;;;;;;;10.88;6.53;;;19.30;99.90;;;;;;5054322;28;20033;-74
2021/08/06 07:20:37;;;;;;;10.68;6.63;;;19.30;99.90;;;;;;5065525;28;20028;-73
2021/08/06 07:23:03;;;;;;;16.58;7.05;;;19.30;99.90;;;;;;5063230;28;20509;-74
2021/08/06 07:25:28;;;;;;;13.63;7.35;;;19.30;99.90;;;;;;5068143;28;20024;-74
2021/08/06 07:27:54;;;;;;;12.88;7.22;;;19.30;99.90;;;;;;5068694;28;20456;-73
2021/08/06 07:30:20;;;;;;;9.18;6.88;;;19.30;99.90;;;;;;5058937;28;20029;-74
2021/08/06 07:32:46;;;;;;;11.73;7.60;;;19.40;99.90;;;;;;5054767;28;20024;-73
2021/08/06 07:35:12;;;;;;;14.52;6.97;;;19.40;99.90;;;;;;5062336;28;20047;-74
2021/08/06 07:37:40;;;;;;;12.20;7.13;;;19.50;99.90;;;;;;5056704;28;20033;-73
2021/08/06 07:40:06;;;;;;;9.05;7.20;;;19.50;99.90;;;;;;5056309;28;20029;-73
2021/08/06 07:42:31;;;;;;;13.45;7.45;;;19.50;99.90;;;;;;5051077;28;20024;-73
2021/08/06 07:44:57;;;;;;;8.73;6.88;;;19.50;99.90;;;;;;5068635;28;20024;-73
2021/08/06 07:47:22;;;;;;;12.15;7.13;;;19.60;99.90;;;;;;5065580;28;20014;-74
2021/08/06 07:49:48;;;;;;;10.90;7.55;;;19.60;99.90;;;;;;5063788;28;20320;-73
2021/08/06 07:52:14;;;;;;;15.40;6.82;;;19.60;99.90;;;;;;5059747;28;20198;-73
2021/08/06 07:54:41;;;;;;;11.88;6.07;;;19.60;99.90;;;;;;5062350;28;20483;-74
2021/08/06 07:57:06;;;;;;;10.20;6.38;;;19.60;99.90;;;;;;5060064;28;20033;-73
2021/08/06 07:59:32;;;;;;;11.35;5.88;;;19.70;99.90;;;;;;5058099;28;20036;-75
2021/08/06 08:01:58;;;;;;;9.35;6.65;;;19.80;99.90;;;;;;5069121;28;20027;-74
2021/08/06 08:04:24;;;;;;;9.07;5.93;;;19.90;99.90;;;;;;5066936;28;20020;-74
2021/08/06 08:06:49;;;;;;;7.28;5.70;;;19.90;99.90;;;;;;5059891;28;20402;-74
2021/08/06 08:09:14;;;;;;;5.95;5.28;;;20.00;99.90;;;;;;5063897;28;20040;-74
2021/08/06 08:11:40;;;;;;;8.60;6.40;;;20.00;99.90;;;;;;5067217;28;20036;-74
2021/08/06 08:14:06;;;;;;;6.72;5.38;;;20.00;99.90;;;;;;5067983;28;20023;-74
2021/08/06 08:16:31;;;;;;;8.45;6.43;;;20.00;99.90;;;;;;5059109;28;20029;-74
2021/08/06 08:18:57;;;;;;;9.40;5.88;;;19.90;99.90;;;;;;5065095;28;20031;-74
2021/08/06 08:21:23;;;;;;;7.65;5.45;;;19.80;99.90;;;;;;5056659;28;20060;-74
2021/08/06 08:23:49;;;;;;;7.07;5.70;;;19.80;99.90;;;;;;5068018;28;20032;-74
2021/08/06 08:26:14;;;;;;;5.30;4.63;;;19.80;99.90;;;;;;5066132;28;20074;-74
2021/08/06 08:28:40;;;;;;;7.75;5.03;;;19.80;99.90;;;;;;5068400;28;20024;-73
2021/08/06 08:31:12;;;;;;;8.07;5.28;;;20.00;99.90;;;;;;5061638;28;20040;-75
2021/08/06 08:33:37;;;;;;;7.10;4.68;;;20.00;99.90;;;;;;5062068;28;20028;-74
2021/08/06 08:36:04;;;;;;;4.53;4.05;;;20.10;99.90;;;;;;5061926;28;20430;-75
2021/08/06 08:38:30;;;;;;;9.50;3.92;;;20.20;99.90;;;;;;5056234;28;20036;-74
2021/08/06 08:40:57;;;;;;;6.03;4.53;;;20.40;99.90;;;;;;5067755;28;20628;-74
2021/08/06 08:43:24;;;;;;;5.90;4.70;;;20.50;99.90;;;;;;5061824;28;20024;-74
2021/08/06 08:45:50;;;;;;;8.20;3.72;;;20.70;99.90;;;;;;5068322;28;20026;-73
2021/08/06 08:48:17;;;;;;;4.25;3.35;;;20.80;99.90;;;;;;5061945;28;20029;-74
2021/08/06 08:50:43;;;;;;;5.30;3.53;;;20.80;99.90;;;;;;5061720;28;20029;-74
2021/08/06 08:53:09;;;;;;;4.68;3.30;;;20.90;98.80;;;;;;5053274;28;20028;-74
2021/08/06 08:55:38;;;;;;;5.38;3.35;;;21.00;99.90;;;;;;5068009;28;20413;-74
2021/08/06 08:58:07;;;;;;;4.68;3.50;;;21.10;98.60;;;;;;5059516;28;20396;-74
2021/08/06 09:00:34;;;;;;;6.38;3.83;;;21.20;99.30;;;;;;5062523;28;20078;-74
2021/08/06 09:02:59;;;;;;;4.70;3.17;;;21.30;96.80;;;;;;5066245;28;20499;-74
2021/08/06 09:05:26;;;;;;;3.08;2.45;;;21.30;97.20;;;;;;5062402;28;20020;-73
2021/08/06 09:07:52;;;;;;;3.75;3.03;;;21.30;95.70;;;;;;5058173;28;20021;-73
2021/08/06 09:10:27;;;;;;;4.32;3.40;;;21.30;91.80;;;;;;5062296;28;20422;-73
2021/08/06 09:13:02;;;;;;;4.00;3.33;;;21.40;89.80;;;;;;5062750;28;20032;-74
2021/08/06 09:15:54;;;;;;;2.88;2.58;;;21.40;91.90;;;;;;5064309;28;20096;-74
2021/08/06 09:18:23;;;;;;;3.33;2.90;;;21.40;92.50;;;;;;5061667;28;20503;-72
2021/08/06 09:20:53;;;;;;;5.68;2.95;;;21.50;90.40;;;;;;5067908;28;20425;-73
2021/08/06 09:23:42;;;;;;;5.68;2.72;;;21.60;90.60;;;;;;5065880;28;20071;-73
2021/08/06 09:26:27;;;;;;;2.67;2.47;;;21.60;87.30;;;;;;5061889;28;20032;-73
2021/08/06 09:29:52;;;;;;;2.95;2.30;;;21.70;82.80;;;;;;5065936;28;20021;-73
2021/08/06 09:32:17;;;;;;;8.02;2.70;;;21.70;80.90;;;;;;5020364;28;20040;-73
2021/08/06 09:34:44;;;;;;;6.75;2.58;;;21.80;82.00;;;;;;5055929;28;20078;-73
2021/08/06 09:37:14;;;;;;;2.42;2.22;;;21.80;78.70;;;;;;5065632;28;20038;-73
2021/08/06 09:39:53;;;;;;;3.13;2.42;;;21.90;83.10;;;;;;5067709;28;20689;-73
2021/08/06 09:42:25;;;;;;;4.15;2.60;;;22.00;86.60;;;;;;5066798;28;20569;-73
2021/08/06 09:44:58;;;;;;;3.20;2.70;;;22.10;80.80;;;;;;5067514;28;20047;-73
2021/08/06 09:47:25;;;;;;;4.82;3.08;;;22.20;80.60;;;;;;5066667;28;20091;-74
2021/08/06 09:49:54;;;;;;;3.92;2.90;;;22.30;79.50;;;;;;5068012;28;20115;-73
2021/08/06 09:52:32;;;;;;;3.55;2.83;;;22.30;83.00;;;;;;5067848;28;20039;-73
2021/08/06 09:54:58;;;;;;;4.82;3.20;;;22.30;75.90;;;;;;5071362;28;20028;-73
2021/08/06 09:57:23;;;;;;;5.80;2.72;;;22.30;72.90;;;;;;5071072;28;20386;-73
2021/08/06 09:59:57;;;;;;;4.35;2.92;;;22.40;78.80;;;;;;5071125;28;20531;-73
2021/08/06 10:02:24;;;;;;;3.83;2.72;;;22.40;76.80;;;;;;5069719;28;20027;-73
2021/08/06 10:05:09;;;;;;;3.65;2.60;;;22.50;78.80;;;;;;5070442;28;20591;-74
2021/08/06 10:07:41;;;;;;;3.13;2.53;;;22.60;80.10;;;;;;5069898;28;20082;-74
2021/08/06 10:10:13;;;;;;;2.95;2.65;;;22.70;77.10;;;;;;5070779;28;20059;-73
2021/08/06 10:12:38;;;;;;;3.38;2.58;;;22.90;77.70;;;;;;5070114;28;20028;-73
2021/08/06 10:15:05;;;;;;;3.05;1.88;;;23.00;75.90;;;;;;5067558;28;20810;-74
2021/08/06 10:17:31;;;;;;;3.38;2.20;;;23.00;74.20;;;;;;5070615;28;20091;-73
2021/08/06 10:19:56;;;;;;;2.97;2.55;;;23.10;74.40;;;;;;5070814;28;20020;-74
2021/08/06 10:22:22;;;;;;;2.95;2.08;;;23.20;66.90;;;;;;5070602;28;20471;-73
2021/08/06 10:24:50;;;;;;;2.90;2.50;;;23.20;67.60;;;;;;5062832;28;20476;-73
2021/08/06 10:27:24;;;;;;;2.80;2.47;;;23.30;69.40;;;;;;5059799;28;20024;-74
2021/08/06 10:30:02;;;;;;;2.78;2.33;;;23.40;76.50;;;;;;5070762;28;20032;-73
2021/08/06 10:32:29;;;;;;;5.40;2.50;;;23.50;73.50;;;;;;5070641;28;20024;-74
2021/08/06 10:35:00;;;;;;;2.20;2.00;;;23.40;68.90;;;;;;5070554;28;20033;-74
2021/08/06 10:37:48;;;;;;;3.35;2.30;;;23.50;72.90;;;;;;5069830;28;20058;-74
2021/08/06 10:40:32;;;;;;;2.10;1.92;;;23.50;72.30;;;;;;5070429;28;20055;-74
2021/08/06 10:43:18;;;;;;;4.68;2.30;;;23.70;71.20;;;;;;5065607;28;20025;-74
2021/08/06 10:45:46;;;;;;;3.13;2.33;;;23.90;69.60;;;;;;5013662;28;20029;-73
2021/08/06 10:48:30;;;;;;;3.15;1.92;;;24.00;66.80;;;;;;5070219;28;20479;-74
2021/08/06 10:51:14;;;;;;;3.35;2.10;;;24.30;68.90;;;;;;5070300;28;20116;-74
2021/08/06 10:53:40;;;;;;;2.22;1.95;;;24.50;68.40;;;;;;5069448;28;20115;-74
2021/08/06 10:56:18;;;;;;;1.73;1.63;;;24.90;68.10;;;;;;5070189;28;20501;-74
2021/08/06 10:58:49;;;;;;;2.25;2.05;;;24.90;64.10;;;;;;5061962;28;20479;-74
2021/08/06 11:01:27;;;;;;;5.82;1.95;;;24.70;65.80;;;;;;5068718;28;20051;-74
2021/08/06 11:03:56;;;;;;;4.57;1.98;;;24.80;66.60;;;;;;5068314;28;20027;-74
2021/08/06 11:06:35;;;;;;;2.60;2.05;;;24.90;68.40;;;;;;5069810;28;20631;-73
2021/08/06 11:09:04;;;;;;;2.10;1.90;;;25.20;64.80;;;;;;5068703;28;20033;-74
2021/08/06 11:11:49;;;;;;;2.90;2.00;;;25.50;57.00;;;;;;5067541;28;20032;-73
2021/08/06 11:14:17;;;;;;;3.08;2.22;;;25.70;57.90;;;;;;5069906;28;20066;-73
2021/08/06 11:17:06;;;;;;;3.67;2.25;;;25.90;58.20;;;;;;5062836;28;20068;-73
2021/08/06 11:19:40;;;;;;;2.55;1.88;;;26.00;58.50;;;;;;5064500;28;20262;-73
2021/08/06 11:22:24;;;;;;;3.35;2.00;;;26.10;57.70;;;;;;5068427;28;20028;-73
2021/08/06 11:24:55;;;;;;;7.28;2.10;;;26.20;58.60;;;;;;5069576;28;20021;-73
2021/08/06 11:27:31;;;;;;;3.15;2.30;;;26.50;57.80;;;;;;5069515;28;20025;-74
2021/08/06 11:30:07;;;;;;;4.07;2.08;;;26.70;55.90;;;;;;5069402;28;20036;-74
2021/08/06 11:32:57;;;;;;;3.90;2.10;;;26.80;60.10;;;;;;5063003;28;20047;-73
2021/08/06 11:35:30;;;;;;;2.35;2.00;;;27.10;58.10;;;;;;5061655;28;20067;-74
2021/08/06 11:38:04;;;;;;;3.58;2.08;;;27.40;57.70;;;;;;5056765;28;20039;-74
2021/08/06 11:40:35;;;;;;;1.75;1.65;;;27.60;54.40;;;;;;5060488;28;20403;-76
2021/08/06 11:43:14;;;;;;;;;;;27.70;56.60;;;;;;5057593;28;20111;-74
2021/08/06 11:45:41;;;;;;;2.50;2.28;;;27.60;57.90;;;;;;5069185;28;19934;-74
2021/08/06 11:48:07;;;;;;;4.28;1.98;;;27.40;55.00;;;;;;5068172;28;20021;-74
2021/08/06 11:50:41;;;;;;;3.97;2.47;;;27.20;55.40;;;;;;5065108;28;20068;-74
2021/08/06 11:53:15;;;;;;;2.22;2.03;;;27.10;57.60;;;;;;5067404;28;20059;-73
2021/08/06 11:55:40;;;;;;;4.68;2.15;;;27.00;52.50;;;;;;5066475;28;20086;-73
2021/08/06 11:58:06;;;;;;;2.10;1.90;;;26.80;51.00;;;;;;5067566;28;20032;-73
2021/08/06 12:00:34;;;;;;;4.80;2.08;;;26.50;52.60;;;;;;5062631;28;20032;-74
2021/08/06 12:03:16;;;;;;;2.22;2.00;;;26.20;56.20;;;;;;5069069;28;20376;-73
2021/08/06 12:05:43;;;;;;;2.13;1.92;;;26.00;54.80;;;;;;5057163;28;20120;-74
2021/08/06 12:08:18;;;;;;;4.35;2.28;;;25.80;58.40;;;;;;5065452;28;20029;-74
2021/08/06 12:10:45;;;;;;;2.72;2.00;;;25.70;56.20;;;;;;5065242;28;20140;-74
2021/08/06 12:13:15;;;;;;;2.38;2.10;;;25.60;57.40;;;;;;5052026;28;20028;-73
2021/08/06 12:15:41;;;;;;;2.63;2.22;;;25.60;57.90;;;;;;5064802;28;20555;-73
2021/08/06 12:18:20;;;;;;;2.90;2.10;;;25.60;57.30;;;;;;5064085;28;20127;-74
2021/08/06 12:21:09;;;;;;;2.75;2.03;;;25.60;59.00;;;;;;5055431;28;20040;-74
2021/08/06 12:23:36;;;;;;;2.20;1.95;;;25.60;61.30;;;;;;5064969;28;20028;-74
2021/08/06 12:26:08;;;;;;;3.90;2.15;;;25.60;59.80;;;;;;5054947;28;20021;-74
2021/08/06 12:28:35;;;;;;;2.33;2.03;;;26.20;56.50;;;;;;5063456;28;20031;-74
2021/08/06 12:31:10;;;;;;;2.40;1.60;;;27.40;58.20;;;;;;5063248;28;20025;-74
2021/08/06 12:33:36;;;;;;;2.47;2.10;;;29.20;56.50;;;;;;5066861;28;20402;-74
2021/08/06 12:36:12;;;;;;;2.00;1.85;;;30.40;51.60;;;;;;5068157;28;20029;-74
2021/08/06 12:38:41;;;;;;;5.38;2.47;;;31.00;48.90;;;;;;5066847;28;20051;-74
2021/08/06 12:41:07;;;;;;;2.25;2.05;;;30.50;48.10;;;;;;5064130;28;20063;-76
2021/08/06 12:43:35;;;;;;;2.75;2.17;;;30.20;49.60;;;;;;5064709;28;20044;-76
2021/08/06 12:46:15;;;;;;;2.00;1.80;;;30.00;47.70;;;;;;5068266;28;20580;-75
2021/08/06 12:49:05;;;;;;;6.22;2.15;;;30.50;49.00;;;;;;5065022;28;20036;-76
2021/08/06 12:51:32;;;;;;;;;;;30.00;47.00;;;;;;5068080;28;20289;-75
2021/08/06 12:53:58;;;;;;;2.38;1.95;;;29.80;50.20;;;;;;5067844;28;20365;-76